Time;durP1;ratioP1;P1;durP2;ratioP2;P2;SDS_P1;SDS_P2;PMS_P1;PMS_P2;Temp;Humidity;BMP_temperature;BMP_pressure;BME280_temperature;BME280_humidity;BME280_pressure;Samples;Min_cycle;Max_cycle;Signal;HPM_P1;HPM_P2
2022/05/26 00:01:50;;;;;;;1.73;1.60;;;;;;;12.50;79.00;99925.56;4936973;29;20043;-69
2022/05/26 00:04:19;;;;;;;0.65;0.65;;;;;;;12.43;79.03;99923.88;4936576;29;20282;-69
2022/05/26 00:06:59;;;;;;;2.25;2.03;;;;;;;12.36;78.96;99911.94;4936643;29;20498;-70
2022/05/26 00:09:27;;;;;;;;;;;;;;;12.22;79.02;99924.81;4937016;29;20059;-69
2022/05/26 00:12:08;;;;;;;1.70;1.42;;;;;;;12.23;79.07;99915.44;4936573;29;19922;-70
2022/05/26 00:14:37;;;;;;;2.38;1.50;;;;;;;12.21;79.45;99922.25;4936479;29;20052;-69
2022/05/26 00:17:07;;;;;;;0.40;0.40;;;;;;;12.15;79.63;99923.13;4936519;29;20053;-69
2022/05/26 00:19:45;;;;;;;1.08;0.98;;;;;;;12.10;79.68;99918.03;4936496;29;20083;-69
2022/05/26 00:22:16;;;;;;;0.65;0.65;;;;;;;12.08;79.51;99929.97;4936504;29;20059;-69
2022/05/26 00:24:45;;;;;;;0.85;0.85;;;;;;;11.98;79.57;99925.72;4936699;29;20069;-69
2022/05/26 00:27:14;;;;;;;1.48;1.38;;;;;;;11.70;79.69;99895.97;4936259;29;20048;-69
2022/05/26 00:29:44;;;;;;;1.15;1.10;;;;;;;11.95;80.14;99941.09;4935493;29;20052;-69
2022/05/26 00:32:13;;;;;;;;;;;;;;;11.91;79.88;99938.53;4936723;29;20060;-69
2022/05/26 00:34:42;;;;;;;1.25;1.15;;;;;;;11.84;80.14;99937.72;4936508;29;19927;-69
2022/05/26 00:37:11;;;;;;;1.23;1.13;;;;;;;11.76;80.20;99941.97;4936097;29;20048;-69
2022/05/26 00:39:42;;;;;;;0.70;0.63;;;;;;;11.75;80.31;99947.97;4936858;29;20048;-68
2022/05/26 00:42:11;;;;;;;0.43;0.43;;;;;;;11.74;80.24;99951.34;4936255;29;20058;-68
2022/05/26 00:44:43;;;;;;;2.53;1.47;;;;;;;11.82;80.42;99952.19;4936129;29;20048;-70
2022/05/26 00:47:18;;;;;;;1.42;1.33;;;;;;;11.84;80.31;99953.06;4936467;29;20669;-69
2022/05/26 00:50:02;;;;;;;0.52;0.52;;;;;;;11.82;80.23;99953.91;4936881;29;20051;-68
2022/05/26 00:52:38;;;;;;;1.20;1.10;;;;;;;11.81;80.02;99958.16;4940382;29;20075;-70
2022/05/26 00:55:12;;;;;;;1.38;1.27;;;;;;;11.72;80.12;99963.28;4940283;29;20056;-68
2022/05/26 00:57:45;;;;;;;0.68;0.68;;;;;;;11.30;79.94;99891.72;4940000;29;20078;-69
2022/05/26 01:00:20;;;;;;;1.50;1.40;;;;;;;11.67;80.26;99966.66;4940215;29;20145;-69
2022/05/26 01:03:06;;;;;;;0.98;0.88;;;;;;;11.72;80.19;99963.28;4939905;29;20052;-69
2022/05/26 01:05:43;;;;;;;4.68;2.40;;;;;;;11.76;80.41;99959.88;4940334;29;20499;-69
2022/05/26 01:08:23;;;;;;;0.63;0.63;;;;;;;11.74;80.23;99959.03;4939738;29;20044;-69
2022/05/26 01:10:54;;;;;;;1.23;0.88;;;;;;;11.67;80.52;99967.53;4940096;29;20051;-68
2022/05/26 01:13:34;;;;;;;0.75;0.75;;;;;;;11.58;80.62;99964.97;4939708;29;20063;-69
2022/05/26 01:16:15;;;;;;;0.85;0.85;;;;;;;11.53;80.49;99956.44;4939930;29;20071;-69
2022/05/26 01:18:53;;;;;;;0.85;0.85;;;;;;;11.52;80.72;99962.41;4939628;29;20131;-68
2022/05/26 01:21:33;;;;;;;0.63;0.63;;;;;;;11.54;80.73;99958.13;4939595;29;20052;-70
2022/05/26 01:24:39;;;;;;;3.22;2.03;;;;;;;11.46;80.77;99959.88;4939864;29;20058;-70
2022/05/26 01:27:24;;;;;;;0.88;0.88;;;;;;;11.44;80.58;99959.84;4939240;29;20135;-71
2022/05/26 01:30:19;;;;;;;0.85;0.85;;;;;;;11.52;80.67;99959.84;4939348;29;20075;-70
2022/05/26 01:33:23;;;;;;;0.98;0.98;;;;;;;11.48;80.70;99955.59;4939963;29;20047;-71
2022/05/26 01:36:02;;;;;;;0.85;0.82;;;;;;;11.43;80.50;99954.75;4937041;29;20060;-70
2022/05/26 01:38:44;;;;;;;0.68;0.65;;;;;;;11.35;80.75;99956.44;4922365;29;20107;-69
2022/05/26 01:41:29;;;;;;;1.00;0.90;;;;;;;11.48;80.50;99955.59;4920140;29;20063;-71
2022/05/26 01:44:25;;;;;;;1.52;1.25;;;;;;;11.48;80.38;99958.16;4920126;29;20054;-69
2022/05/26 01:47:11;;;;;;;0.70;0.70;;;;;;;11.48;80.23;99959.84;4920212;29;20138;-69
2022/05/26 01:49:50;;;;;;;1.40;1.33;;;;;;;11.38;80.04;99966.66;4920186;29;20059;-71
2022/05/26 01:52:28;;;;;;;0.50;0.50;;;;;;;11.27;80.11;99968.38;4920004;29;20052;-69
2022/05/26 01:55:04;;;;;;;0.65;0.63;;;;;;;11.25;80.08;99965.78;4920199;29;20056;-71
2022/05/26 01:57:47;;;;;;;2.03;1.90;;;;;;;11.21;80.01;99973.47;4920635;29;20056;-71
2022/05/26 02:00:19;;;;;;;1.13;1.05;;;;;;;11.15;80.05;99968.34;4919828;29;20473;-71
2022/05/26 02:02:56;;;;;;;0.73;0.73;;;;;;;11.12;80.28;99968.34;4903023;29;20511;-71
2022/05/26 02:05:30;;;;;;;1.42;1.33;;;;;;;11.06;80.35;99976.00;4919807;29;20059;-71
2022/05/26 02:08:12;;;;;;;0.50;0.50;;;;;;;11.08;80.57;99971.75;4919761;29;20135;-71
2022/05/26 02:10:50;;;;;;;0.55;0.55;;;;;;;11.12;80.56;99965.78;4919595;29;20071;-70
2022/05/26 02:13:28;;;;;;;1.02;0.95;;;;;;;11.10;80.57;99968.34;4919903;29;20056;-71
2022/05/26 02:16:02;;;;;;;1.17;1.08;;;;;;;11.11;80.65;99981.97;4919579;29;20072;-70
2022/05/26 02:18:45;;;;;;;0.93;0.75;;;;;;;11.11;80.56;99979.44;4919559;29;20053;-71
2022/05/26 02:21:30;;;;;;;0.98;0.80;;;;;;;11.05;80.50;99971.75;4919429;29;20060;-71
2022/05/26 02:24:06;;;;;;;0.77;0.73;;;;;;;10.99;80.32;99981.94;4919727;29;20418;-71
2022/05/26 02:26:36;;;;;;;0.60;0.60;;;;;;;10.90;80.41;99974.25;4902815;29;20597;-71
2022/05/26 02:32:07;;;;;;;2.25;1.20;;;;;;;10.74;80.63;99981.03;4919353;29;20059;-71
2022/05/26 02:34:45;;;;;;;0.85;0.85;;;;;;;10.81;80.68;99987.00;4919245;29;20075;-71
2022/05/26 02:37:17;;;;;;;1.10;1.05;;;;;;;10.94;80.98;99988.75;4919132;29;20055;-71
2022/05/26 02:39:47;;;;;;;0.80;0.80;;;;;;;11.05;80.74;99989.63;4919098;29;20052;-71
2022/05/26 02:42:18;;;;;;;1.08;0.98;;;;;;;11.15;80.58;99988.78;4919044;29;20059;-71
2022/05/26 02:44:57;;;;;;;0.60;0.60;;;;;;;11.23;80.37;100002.41;4919042;29;20052;-71
2022/05/26 02:47:41;;;;;;;0.50;0.50;;;;;;;11.28;79.95;99995.59;4919298;29;20048;-71
2022/05/26 02:50:23;;;;;;;0.85;0.85;;;;;;;11.22;79.93;99995.63;4919158;29;20490;-70
2022/05/26 02:53:06;;;;;;;1.48;1.38;;;;;;;11.33;79.53;99999.03;4918879;29;20056;-71
2022/05/26 02:55:49;;;;;;;1.15;1.05;;;;;;;11.35;79.28;99999.88;4919084;29;20384;-68
2022/05/26 02:58:33;;;;;;;1.50;1.20;;;;;;;11.37;79.28;100003.31;4918827;29;20503;-70
2022/05/26 03:01:08;;;;;;;1.40;1.30;;;;;;;11.40;78.96;100010.97;4918690;29;20511;-70
2022/05/26 03:03:46;;;;;;;0.70;0.70;;;;;;;11.38;78.86;99998.19;4919050;29;20179;-71
2022/05/26 03:06:20;;;;;;;1.13;1.10;;;;;;;11.42;78.58;100009.28;4918963;29;20459;-71
2022/05/26 03:09:01;;;;;;;0.77;0.77;;;;;;;11.40;78.51;100008.41;4918902;29;20107;-71
2022/05/26 03:11:48;;;;;;;1.63;1.15;;;;;;;11.35;78.42;100007.53;4918569;29;20063;-71
2022/05/26 03:14:27;;;;;;;1.05;1.05;;;;;;;11.32;78.31;100022.88;4918247;29;20415;-70
2022/05/26 03:16:59;;;;;;;0.80;0.80;;;;;;;11.19;78.34;100016.03;4918752;29;20566;-71
2022/05/26 03:19:32;;;;;;;5.40;2.33;;;;;;;11.04;78.18;100016.00;4918632;29;20627;-70
2022/05/26 03:22:01;;;;;;;0.80;0.75;;;;;;;10.95;78.58;100021.06;4918351;29;20103;-70
2022/05/26 03:24:31;;;;;;;1.27;1.17;;;;;;;11.00;79.06;100024.50;4901700;29;20486;-71
2022/05/26 03:27:00;;;;;;;0.77;0.77;;;;;;;11.15;79.26;100024.56;4918395;29;20294;-71
2022/05/26 03:29:32;;;;;;;1.07;0.97;;;;;;;11.22;79.41;100026.28;4918471;29;20102;-70
2022/05/26 03:32:13;;;;;;;0.85;0.82;;;;;;;11.33;79.57;100025.44;4918421;29;20056;-71
2022/05/26 03:43:01;;;;;;;1.05;0.95;;;;;;;11.42;79.93;100034.84;4918206;29;20439;-70
2022/05/26 03:45:33;;;;;;;1.40;1.05;;;;;;;11.46;79.67;100026.31;4917908;29;20414;-70
2022/05/26 03:48:10;;;;;;;1.33;1.23;;;;;;;11.42;79.34;100024.63;4917903;29;20131;-70
2022/05/26 03:50:40;;;;;;;1.23;1.15;;;;;;;11.34;79.58;100036.53;4918276;29;20071;-71
2022/05/26 03:53:09;;;;;;;0.55;0.55;;;;;;;11.32;79.96;100028.00;4917965;29;20463;-70
2022/05/26 03:55:45;;;;;;;1.23;1.13;;;;;;;11.41;80.06;100033.13;4917724;29;20044;-70
2022/05/26 03:58:18;;;;;;;1.23;1.13;;;;;;;11.53;80.32;100033.13;4918103;29;20143;-70
2022/05/26 04:00:47;;;;;;;0.60;0.60;;;;;;;11.59;80.38;100042.53;4917677;29;20056;-70
2022/05/26 04:03:19;;;;;;;0.70;0.70;;;;;;;11.41;79.90;100038.22;4917536;29;20044;-70
2022/05/26 04:05:57;;;;;;;0.85;0.85;;;;;;;11.19;79.76;100036.47;4917570;29;20112;-70
2022/05/26 04:08:26;;;;;;;3.25;2.70;;;;;;;11.07;80.14;100046.66;4917934;29;20506;-70
2022/05/26 04:10:57;;;;;;;0.50;0.50;;;;;;;10.98;80.59;100047.50;4917418;29;20100;-70
2022/05/26 04:13:29;;;;;;;1.13;1.05;;;;;;;10.92;80.73;100034.69;4917755;29;20064;-70
2022/05/26 04:15:58;;;;;;;1.25;0.88;;;;;;;11.01;80.93;100044.97;4917503;29;20079;-69
2022/05/26 04:18:27;;;;;;;1.27;1.17;;;;;;;11.05;81.14;100045.81;4917303;29;20044;-70
2022/05/26 04:21:04;;;;;;;1.87;1.23;;;;;;;11.27;81.38;100055.25;4917445;29;20052;-70
2022/05/26 04:23:34;;;;;;;0.60;0.60;;;;;;;11.47;81.23;100047.63;4917890;29;20414;-70
2022/05/26 04:26:05;;;;;;;1.48;1.17;;;;;;;11.53;81.05;100033.13;4917736;29;20064;-70
2022/05/26 04:28:43;;;;;;;0.80;0.80;;;;;;;11.77;81.23;100052.78;4917323;29;20139;-70
2022/05/26 04:31:12;;;;;;;0.70;0.70;;;;;;;11.85;80.95;100057.03;4917302;29;20081;-70
2022/05/26 04:33:49;;;;;;;1.30;1.20;;;;;;;12.02;80.47;100067.28;4917501;29;20529;-70
2022/05/26 04:36:19;;;;;;;1.10;1.00;;;;;;;12.13;80.57;100069.81;4917267;29;20048;-70
2022/05/26 04:38:48;;;;;;;0.93;0.90;;;;;;;12.24;80.32;100080.94;4917099;29;20048;-71
2022/05/26 04:41:20;;;;;;;2.15;1.95;;;;;;;12.34;80.09;100075.78;4917599;29;20565;-70
2022/05/26 04:43:49;;;;;;;1.27;1.17;;;;;;;12.44;79.77;100074.06;4917130;29;20139;-70
2022/05/26 04:46:27;;;;;;;1.13;1.03;;;;;;;12.54;79.62;100070.63;4917129;29;20503;-70
2022/05/26 04:49:06;;;;;;;1.15;1.05;;;;;;;12.67;79.28;100077.41;4917418;29;20378;-70
2022/05/26 04:51:55;;;;;;;1.33;1.23;;;;;;;12.85;79.10;100082.47;4916965;29;20056;-70
2022/05/26 04:54:27;;;;;;;0.80;0.80;;;;;;;12.93;79.06;100077.34;4917150;29;20139;-70
2022/05/26 04:57:08;;;;;;;1.20;1.10;;;;;;;13.09;78.50;100081.56;4917152;29;20056;-71
2022/05/26 04:59:46;;;;;;;1.50;1.40;;;;;;;13.20;77.96;100075.53;4917408;29;20104;-71
2022/05/26 05:02:17;;;;;;;0.73;0.73;;;;;;;13.35;77.59;100075.44;4917419;29;20164;-71
2022/05/26 05:04:49;;;;;;;0.55;0.55;;;;;;;13.38;77.22;100075.44;4916735;29;20048;-71
2022/05/26 05:07:19;;;;;;;1.92;1.63;;;;;;;13.43;76.75;100078.81;4916983;29;20048;-71
2022/05/26 05:09:49;;;;;;;0.40;0.40;;;;;;;13.37;76.69;100073.72;4917144;29;20056;-70
2022/05/26 05:12:24;;;;;;;0.98;0.95;;;;;;;13.32;76.18;100080.59;4916999;29;20499;-71
2022/05/26 05:14:55;;;;;;;1.55;1.45;;;;;;;13.35;76.86;100085.69;4917577;29;20062;-71
2022/05/26 05:17:27;;;;;;;1.75;0.80;;;;;;;13.19;76.42;100037.94;4916770;29;20083;-72
2022/05/26 05:19:56;;;;;;;1.48;1.02;;;;;;;13.53;76.51;100089.88;4917158;29;20171;-71
2022/05/26 05:22:35;;;;;;;1.25;1.15;;;;;;;13.63;76.55;100082.97;4916814;29;20060;-71
2022/05/26 05:25:09;;;;;;;2.55;1.17;;;;;;;13.74;76.01;100089.75;4916825;29;20063;-71
2022/05/26 05:27:53;;;;;;;0.70;0.70;;;;;;;13.86;76.08;100073.41;4916717;29;20119;-70
2022/05/26 05:30:30;;;;;;;0.80;0.80;;;;;;;13.92;75.36;100078.47;4916953;29;20078;-72
2022/05/26 05:33:05;;;;;;;2.45;1.77;;;;;;;14.06;75.26;100081.75;4917102;29;20131;-70
2022/05/26 05:35:39;;;;;;;1.23;0.90;;;;;;;14.16;74.70;100088.53;4917298;29;20515;-70
2022/05/26 05:38:12;;;;;;;1.15;0.68;;;;;;;14.19;74.64;100091.09;4920138;29;20515;-70
2022/05/26 05:40:50;;;;;;;3.38;2.75;;;;;;;14.27;74.00;100091.00;4920509;29;20048;-70
2022/05/26 05:43:21;;;;;;;2.17;1.98;;;;;;;14.23;74.31;100069.63;4920141;29;20055;-70
2022/05/26 05:45:59;;;;;;;2.08;1.88;;;;;;;14.51;74.37;100091.69;4920135;29;20507;-69
2022/05/26 05:48:29;;;;;;;0.70;0.70;;;;;;;14.39;74.07;100096.94;4920304;29;20052;-71
2022/05/26 05:51:06;;;;;;;1.15;1.05;;;;;;;14.16;74.84;100101.38;4919940;29;20044;-69
2022/05/26 05:53:35;;;;;;;0.88;0.85;;;;;;;14.22;75.56;100106.47;4920319;29;20123;-70
2022/05/26 05:56:04;;;;;;;0.70;0.70;;;;;;;14.36;75.81;100099.53;4919879;29;20059;-69
2022/05/26 05:58:44;;;;;;;1.10;1.00;;;;;;;14.52;75.82;100108.78;4920188;29;20036;-69
2022/05/26 06:01:12;;;;;;;1.10;1.00;;;;;;;14.48;75.68;100111.38;4920120;29;20399;-68
2022/05/26 06:03:41;;;;;;;1.47;1.30;;;;;;;14.64;75.42;100097.50;4919855;29;20119;-70
2022/05/26 06:06:10;;;;;;;0.97;0.93;;;;;;;14.59;75.24;100105.28;4903163;29;20540;-69
2022/05/26 06:08:42;;;;;;;1.40;1.30;;;;;;;14.54;75.62;100101.91;4919642;29;20293;-69
2022/05/26 06:11:11;;;;;;;4.22;1.52;;;;;;;14.43;75.66;100098.59;4919677;29;20506;-70
2022/05/26 06:13:45;;;;;;;2.67;1.45;;;;;;;14.45;75.80;100096.00;4919582;29;20055;-69
2022/05/26 06:16:14;;;;;;;1.13;1.02;;;;;;;14.49;76.30;100101.09;4919890;29;20059;-69
2022/05/26 06:18:43;;;;;;;2.10;1.60;;;;;;;14.73;76.23;100107.72;4919882;29;20051;-70
2022/05/26 06:21:12;;;;;;;1.05;0.98;;;;;;;15.02;75.89;100099.69;4920039;29;20517;-69
2022/05/26 06:23:41;;;;;;;1.98;1.60;;;;;;;15.11;75.67;100094.41;4919309;29;20048;-70
2022/05/26 06:26:10;;;;;;;3.55;2.28;;;;;;;15.11;nan;100099.56;4919308;29;20055;-70
2022/05/26 06:31:20;;;;;;;1.48;1.38;;;;;;;15.32;76.00;100114.72;4919262;29;20048;-71
2022/05/26 06:39:21;;;;;;;3.08;1.60;;;;;;;15.40;75.24;100112.91;4919184;29;20060;-70
2022/05/26 06:44:39;;;;;;;2.33;2.03;;;;;;;16.00;75.03;100116.34;4918869;29;20533;-70
2022/05/26 06:47:11;;;;;;;2.08;1.77;;;;;;;16.12;74.50;100115.28;4918480;29;20056;-70
2022/05/26 06:49:42;;;;;;;4.85;1.70;;;;;;;16.26;74.41;100118.47;4918839;29;20515;-70
2022/05/26 06:52:24;;;;;;;1.55;1.15;;;;;;;16.22;74.10;100116.84;4918979;29;20210;-69
2022/05/26 06:54:56;;;;;;;2.33;1.85;;;;;;;16.35;74.05;100118.31;4919397;29;20466;-70
2022/05/26 06:57:34;;;;;;;1.90;1.33;;;;;;;16.66;74.22;100114.34;4919379;29;20107;-68
2022/05/26 07:00:05;;;;;;;2.65;1.77;;;;;;;16.79;73.52;100117.56;4918770;29;20080;-69
2022/05/26 07:02:45;;;;;;;3.45;1.58;;;;;;;17.01;73.33;100114.53;4919307;29;20376;-70
2022/05/26 07:05:14;;;;;;;1.55;1.45;;;;;;;17.10;73.65;100111.78;4918731;29;20056;-70
2022/05/26 07:07:54;;;;;;;1.55;1.25;;;;;;;17.24;73.32;100119.22;4918633;29;20056;-69
2022/05/26 07:10:34;;;;;;;1.67;1.35;;;;;;;17.19;73.19;100115.91;4918596;29;20059;-69
2022/05/26 07:13:17;;;;;;;1.30;1.20;;;;;;;17.23;73.09;100112.38;4918772;29;20080;-68
2022/05/26 07:15:46;;;;;;;0.70;0.70;;;;;;;17.24;73.32;100108.91;4918336;29;20051;-69
2022/05/26 07:18:17;;;;;;;1.30;1.20;;;;;;;17.32;73.15;100113.00;4918596;29;20514;-69
2022/05/26 07:20:46;;;;;;;1.30;1.05;;;;;;;17.47;73.52;100111.03;4918393;29;20056;-69
2022/05/26 07:23:18;;;;;;;1.17;1.08;;;;;;;17.58;73.65;100114.22;4918610;29;20052;-69
2022/05/26 07:25:47;;;;;;;1.17;1.08;;;;;;;17.65;73.07;100115.78;4918266;29;20055;-69
2022/05/26 07:28:16;;;;;;;2.10;1.25;;;;;;;17.80;73.30;100115.44;4918173;29;20075;-69
2022/05/26 07:30:45;;;;;;;1.65;1.35;;;;;;;17.92;72.99;100110.81;4918009;29;20121;-69
2022/05/26 07:33:13;;;;;;;4.25;1.00;;;;;;;17.99;72.82;100119.31;4917881;29;20056;-68
2022/05/26 07:35:47;;;;;;;1.35;1.25;;;;;;;17.68;72.69;100069.25;4918109;29;20040;-68
2022/05/26 07:41:20;;;;;;;1.08;1.02;;;;;;;18.43;72.85;100119.03;4918113;29;20094;-68
2022/05/26 07:43:54;;;;;;;1.98;1.42;;;;;;;18.60;72.44;100122.06;4918335;29;20139;-68
2022/05/26 07:46:24;;;;;;;1.45;1.05;;;;;;;18.77;72.13;100124.22;4918494;29;20447;-67
2022/05/26 07:49:02;;;;;;;1.48;1.00;;;;;;;18.89;71.66;100123.03;4917872;29;20108;-68
2022/05/26 07:51:33;;;;;;;1.55;1.42;;;;;;;18.93;71.18;100120.31;4918083;29;20044;-66
2022/05/26 07:54:02;;;;;;;1.25;1.00;;;;;;;19.07;71.50;100127.72;4917713;29;20119;-68
2022/05/26 07:56:36;;;;;;;1.48;1.38;;;;;;;19.19;71.32;100127.38;4917734;29;20048;-68
2022/05/26 07:59:09;;;;;;;3.30;1.98;;;;;;;19.16;70.72;100125.72;4917401;29;20082;-67
2022/05/26 08:01:41;;;;;;;0.73;0.73;;;;;;;19.29;70.34;100123.63;4917620;29;20060;-68
2022/05/26 08:04:14;;;;;;;2.30;1.85;;;;;;;19.45;69.60;100119.72;4917685;29;20098;-66
2022/05/26 08:06:46;;;;;;;1.25;1.15;;;;;;;19.42;68.67;100099.09;4917954;29;20112;-70
2022/05/26 08:09:16;;;;;;;0.75;0.75;;;;;;;19.53;68.00;100101.38;4917641;29;20056;-69
2022/05/26 08:11:46;;;;;;;0.65;0.65;;;;;;;19.71;67.46;100126.69;4917790;29;20052;-68
2022/05/26 08:14:15;;;;;;;2.53;1.10;;;;;;;19.55;67.66;100074.53;4917892;29;20104;-68
2022/05/26 08:16:47;;;;;;;1.13;1.02;;;;;;;20.05;67.07;100117.81;4917542;29;20048;-68
2022/05/26 08:19:18;;;;;;;1.80;0.80;;;;;;;20.28;66.19;100113.63;4917385;29;20131;-67
2022/05/26 08:21:50;;;;;;;0.50;0.50;;;;;;;20.39;65.40;100116.75;4917629;29;20402;-69
2022/05/26 08:24:19;;;;;;;0.70;0.70;;;;;;;20.49;65.22;100118.13;4917713;29;20107;-69
2022/05/26 08:26:48;;;;;;;0.60;0.60;;;;;;;20.66;65.06;100120.97;4917382;29;20056;-69
2022/05/26 08:29:17;;;;;;;1.85;0.80;;;;;;;20.84;65.22;100115.16;4917306;29;20044;-68
2022/05/26 08:31:46;;;;;;;0.60;0.60;;;;;;;20.58;64.44;100081.50;4917733;29;20071;-67
2022/05/26 08:34:17;;;;;;;0.70;0.70;;;;;;;20.85;64.51;100121.19;4917288;29;20139;-68
2022/05/26 08:36:46;;;;;;;1.25;0.80;;;;;;;20.94;64.41;100120.84;4900091;29;20060;-68
2022/05/26 08:39:19;;;;;;;1.15;1.05;;;;;;;21.05;64.63;100114.41;4917164;29;20060;-68
2022/05/26 08:41:51;;;;;;;0.73;0.70;;;;;;;21.19;63.67;100117.34;4917466;29;20534;-68
2022/05/26 08:44:31;;;;;;;0.90;0.90;;;;;;;21.28;63.89;100121.34;4917477;29;20083;-70
2022/05/26 08:47:09;;;;;;;;;;;;;;;21.38;63.26;100121.84;4917823;29;20056;-69
2022/05/26 08:49:53;;;;;;;0.65;0.65;;;;;;;21.56;62.75;100122.00;4917270;29;19923;-68
2022/05/26 08:52:30;;;;;;;0.63;0.63;;;;;;;21.47;61.38;100118.91;4916989;29;20083;-68
2022/05/26 08:55:05;;;;;;;0.80;0.65;;;;;;;21.50;61.70;100118.78;4917142;29;20147;-69
2022/05/26 08:57:40;;;;;;;0.40;0.40;;;;;;;21.64;61.49;100116.50;4917063;29;20139;-68
2022/05/26 09:00:13;;;;;;;0.68;0.68;;;;;;;21.67;60.64;100113.78;4917218;29;20553;-68
2022/05/26 09:02:57;;;;;;;0.52;0.52;;;;;;;21.80;60.94;100107.19;4917392;29;20474;-67
2022/05/26 09:05:33;;;;;;;1.40;1.05;;;;;;;21.93;60.67;100106.66;4916978;29;20056;-68
2022/05/26 09:13:29;;;;;;;0.95;0.70;;;;;;;22.35;59.56;100109.28;4920788;29;20521;-67
2022/05/26 09:16:00;;;;;;;1.25;1.17;;;;;;;22.41;59.16;100109.00;4920685;29;20063;-69
2022/05/26 09:18:29;;;;;;;0.45;0.45;;;;;;;22.42;58.96;100105.50;4920516;29;20072;-67
2022/05/26 09:21:13;;;;;;;1.63;1.45;;;;;;;22.57;58.43;100110.06;4920865;29;20145;-68
2022/05/26 09:23:44;;;;;;;0.60;0.60;;;;;;;22.56;58.36;100110.97;4920871;29;20052;-68
2022/05/26 09:26:20;;;;;;;0.60;0.60;;;;;;;22.58;57.36;100114.34;4920419;29;20056;-67
2022/05/26 09:28:54;;;;;;;0.90;0.77;;;;;;;22.55;58.05;100104.09;4921081;29;20044;-68
2022/05/26 09:31:29;;;;;;;0.60;0.60;;;;;;;22.64;57.91;100114.13;4920643;29;20060;-68
2022/05/26 09:34:08;;;;;;;0.70;0.70;;;;;;;22.37;57.69;100075.38;4920640;29;20410;-67
2022/05/26 09:36:48;;;;;;;0.40;0.40;;;;;;;22.60;57.19;100098.69;4920205;29;20051;-66
2022/05/26 09:39:21;;;;;;;0.65;0.65;;;;;;;22.71;57.61;100106.03;4920388;29;20451;-67
2022/05/26 09:41:53;;;;;;;0.70;0.70;;;;;;;22.82;56.99;100103.84;4920368;29;20105;-67
2022/05/26 09:44:31;;;;;;;0.60;0.60;;;;;;;22.89;56.13;100106.06;4920358;29;20072;-67
2022/05/26 09:47:04;;;;;;;0.80;0.77;;;;;;;23.01;55.58;100097.72;4920165;29;20060;-67
2022/05/26 09:49:39;;;;;;;10.95;0.77;;;;;;;22.98;55.45;100102.22;4920354;29;20418;-69
2022/05/26 09:52:15;;;;;;;0.68;0.68;;;;;;;22.99;55.42;100099.56;4919921;29;20048;-66
2022/05/26 09:54:49;;;;;;;6.53;1.95;;;;;;;23.02;55.83;100101.16;4919975;29;20052;-66
2022/05/26 09:57:25;;;;;;;0.50;0.50;;;;;;;23.20;56.02;100095.16;4919833;29;20052;-67
2022/05/26 09:59:54;;;;;;;0.57;0.57;;;;;;;23.19;55.20;100088.25;4920232;29;20141;-68
2022/05/26 10:02:29;;;;;;;0.95;0.80;;;;;;;23.34;54.92;100092.75;4919821;29;20040;-67
2022/05/26 10:05:08;;;;;;;0.68;0.65;;;;;;;23.39;53.83;100087.34;4919655;29;20059;-68
2022/05/26 10:07:52;;;;;;;0.60;0.55;;;;;;;23.28;52.62;100078.25;4920370;29;20462;-69
2022/05/26 10:10:28;;;;;;;0.50;0.50;;;;;;;23.21;52.30;100086.41;4919778;29;20052;-66
2022/05/26 10:13:17;;;;;;;1.00;0.65;;;;;;;22.95;53.01;100087.59;4920068;29;20079;-68
2022/05/26 10:15:58;;;;;;;1.08;0.93;;;;;;;22.65;53.21;100094.97;4919614;29;20059;-67
2022/05/26 10:19:05;;;;;;;1.40;0.90;;;;;;;22.60;54.02;100094.28;4919901;29;20411;-67
2022/05/26 10:21:50;;;;;;;0.98;0.88;;;;;;;22.49;54.90;100096.53;4919532;29;20048;-67
2022/05/26 10:24:46;;;;;;;0.57;0.57;;;;;;;22.41;53.27;100092.56;4919469;29;20048;-68
2022/05/26 10:27:25;;;;;;;0.50;0.50;;;;;;;22.35;52.27;100088.47;4888741;29;20044;-67
2022/05/26 10:30:19;;;;;;;0.70;0.70;;;;;;;22.29;51.82;100098.28;4919388;29;20115;-68
2022/05/26 10:33:03;;;;;;;0.63;0.63;;;;;;;22.19;52.01;100107.38;4919163;29;20107;-68
2022/05/26 10:35:57;;;;;;;0.60;0.60;;;;;;;22.33;53.62;100095.50;4919227;29;20444;-68
2022/05/26 10:38:51;;;;;;;0.50;0.50;;;;;;;22.44;51.74;100082.00;4918349;29;20064;-67
2022/05/26 10:41:26;;;;;;;0.52;0.52;;;;;;;22.57;50.26;100091.00;4918307;29;20127;-69
2022/05/26 10:44:06;;;;;;;0.60;0.60;;;;;;;22.77;51.05;100079.75;4918765;29;20383;-68
2022/05/26 10:46:41;;;;;;;1.27;0.80;;;;;;;22.84;51.15;100070.75;4918133;29;20048;-68
2022/05/26 10:49:25;;;;;;;0.40;0.40;;;;;;;23.08;51.06;100077.47;4918341;29;20052;-69
2022/05/26 10:51:59;;;;;;;0.60;0.60;;;;;;;23.26;50.13;100079.22;4917980;29;20138;-68
2022/05/26 10:54:45;;;;;;;0.80;0.80;;;;;;;23.53;50.14;100077.97;4917803;29;20139;-68
2022/05/26 10:57:25;;;;;;;1.83;1.42;;;;;;;23.91;49.66;100078.72;4918538;29;20059;-68
2022/05/26 11:00:02;;;;;;;0.50;0.50;;;;;;;24.07;48.15;100084.09;4918130;29;20066;-67
2022/05/26 11:02:40;;;;;;;0.50;0.50;;;;;;;23.79;46.17;100085.41;4917861;29;20052;-67
2022/05/26 11:05:17;;;;;;;0.80;0.80;;;;;;;23.67;46.79;100085.13;4918287;29;20403;-66
2022/05/26 11:07:53;;;;;;;0.50;0.50;;;;;;;23.68;46.47;100081.63;4917775;29;20075;-67
2022/05/26 11:10:27;;;;;;;0.40;0.40;;;;;;;23.77;46.03;100048.13;4917637;29;20112;-67
2022/05/26 11:13:02;;;;;;;0.60;0.60;;;;;;;24.07;45.39;100078.88;4917585;29;20059;-67
2022/05/26 11:18:25;;;;;;;0.60;0.60;;;;;;;24.65;46.04;100068.00;4918373;29;20543;-67
2022/05/26 11:20:58;;;;;;;0.73;0.73;;;;;;;24.78;44.31;100068.25;4917859;29;20052;-67
2022/05/26 11:23:31;;;;;;;0.63;0.55;;;;;;;24.66;44.17;100063.63;4917429;29;20052;-67
2022/05/26 11:26:08;;;;;;;0.80;0.80;;;;;;;24.37;44.30;100051.22;4917939;29;20398;-68
2022/05/26 11:28:50;;;;;;;0.65;0.60;;;;;;;24.19;45.38;100053.00;4917749;29;20427;-67
2022/05/26 11:36:59;;;;;;;0.70;0.70;;;;;;;24.01;44.71;100053.91;4875234;29;1243267;-66
2022/05/26 11:39:34;;;;;;;1.65;1.27;;;;;;;23.38;44.64;99927.56;4918349;29;20103;-67
2022/05/26 11:42:06;;;;;;;0.50;0.50;;;;;;;24.23;45.60;100048.47;4918406;29;20056;-66
2022/05/26 11:44:41;;;;;;;0.63;0.60;;;;;;;24.11;45.13;100041.28;4918271;29;20405;-68
2022/05/26 11:47:25;;;;;;;0.40;0.40;;;;;;;24.10;45.14;100034.34;4917996;29;20075;-67
2022/05/26 11:50:29;;;;;;;0.50;0.50;;;;;;;24.08;45.63;100033.59;4918286;29;20162;-67
2022/05/26 11:53:29;;;;;;;0.50;0.50;;;;;;;24.00;46.06;100032.19;4918108;29;20048;-66
2022/05/26 11:56:04;;;;;;;0.50;0.50;;;;;;;23.82;46.31;100042.69;4878271;29;20052;-67
2022/05/26 11:58:38;;;;;;;0.50;0.50;;;;;;;23.46;46.01;100021.84;4900966;29;20079;-67
2022/05/26 12:01:25;;;;;;;0.73;0.73;;;;;;;23.49;45.98;100039.94;4917697;29;20052;-67
2022/05/26 12:04:23;;;;;;;0.50;0.50;;;;;;;23.45;47.06;100046.22;4915889;29;20562;-67
2022/05/26 12:06:59;;;;;;;0.60;0.60;;;;;;;23.37;47.01;100024.88;4915822;29;20084;-68
2022/05/26 12:09:33;;;;;;;0.60;0.60;;;;;;;23.58;46.64;100034.31;4915871;29;20142;-67
2022/05/26 12:12:04;;;;;;;0.47;0.47;;;;;;;23.56;46.70;100020.50;4915625;29;20082;-68
2022/05/26 12:14:36;;;;;;;0.50;0.50;;;;;;;23.69;47.26;100026.78;4915459;29;20063;-68
2022/05/26 12:17:30;;;;;;;0.40;0.40;;;;;;;23.70;47.18;100023.28;4915664;29;20083;-68
2022/05/26 12:20:03;;;;;;;1.58;1.30;;;;;;;23.88;46.04;100011.94;4915757;29;20088;-66
2022/05/26 12:22:40;;;;;;;0.65;0.65;;;;;;;24.14;44.93;100007.22;4915528;29;20048;-66
2022/05/26 12:25:20;;;;;;;0.60;0.60;;;;;;;24.09;43.66;100004.00;4915852;29;20063;-68
2022/05/26 12:28:36;;;;;;;0.40;0.40;;;;;;;23.96;43.80;99999.34;4915414;29;20506;-67
2022/05/26 12:31:06;;;;;;;0.50;0.50;;;;;;;23.89;45.57;99997.97;4915824;29;20059;-68
2022/05/26 12:34:23;;;;;;;1.10;1.02;;;;;;;23.81;46.27;100000.13;4915308;29;20055;-68
2022/05/26 12:37:03;;;;;;;0.47;0.47;;;;;;;23.71;47.17;99992.81;4884384;29;20116;-67
2022/05/26 12:39:59;;;;;;;0.30;0.30;;;;;;;23.59;47.01;99993.41;4917448;29;20448;-67
2022/05/26 12:42:52;;;;;;;0.52;0.52;;;;;;;23.57;46.48;100001.31;4917509;29;20444;-68
2022/05/26 12:45:42;;;;;;;0.50;0.50;;;;;;;23.54;47.03;99990.22;4919137;29;20418;-68
2022/05/26 12:48:49;;;;;;;0.52;0.52;;;;;;;23.60;46.97;99995.13;4921277;29;20134;-68
2022/05/26 12:51:35;;;;;;;0.60;0.60;;;;;;;23.66;47.57;99995.66;4921114;29;20059;-68